createdAt,value
2023-04-09T00:00:38.556Z,429.00
2023-04-09T00:01:38.551Z,431.00
2023-04-09T00:02:38.585Z,433.00
2023-04-09T00:03:38.543Z,431.00
2023-04-09T00:04:38.504Z,428.00
2023-04-09T00:05:38.469Z,428.00
2023-04-09T00:06:38.462Z,426.00
2023-04-09T00:07:38.443Z,426.00
2023-04-09T00:08:38.430Z,428.00
2023-04-09T00:09:38.479Z,428.00
2023-04-09T00:10:38.494Z,428.00
2023-04-09T00:11:38.451Z,429.00
2023-04-09T00:12:38.435Z,428.00
2023-04-09T00:13:39.689Z,428.00
2023-04-09T00:14:38.424Z,425.00
2023-04-09T00:15:38.351Z,426.00
2023-04-09T00:16:38.386Z,425.00
2023-04-09T00:17:38.394Z,426.00
2023-04-09T00:18:38.365Z,426.00
2023-04-09T00:19:38.311Z,427.00
2023-04-09T00:20:38.301Z,430.00
2023-04-09T00:21:38.265Z,428.00
2023-04-09T00:22:38.260Z,428.00
2023-04-09T00:23:38.267Z,425.00
2023-04-09T00:24:38.276Z,423.00
2023-04-09T00:25:38.247Z,422.00
2023-04-09T00:26:38.240Z,423.00
2023-04-09T00:27:38.237Z,421.00
2023-04-09T00:28:38.275Z,421.00
2023-04-09T00:29:38.320Z,420.00
2023-04-09T00:30:38.341Z,420.00
2023-04-09T00:31:38.385Z,418.00
2023-04-09T00:32:38.369Z,418.00
2023-04-09T00:33:38.350Z,419.00
2023-04-09T00:34:38.320Z,418.00
2023-04-09T00:35:38.401Z,416.00
2023-04-09T00:36:38.288Z,416.00
2023-04-09T00:37:38.286Z,417.00
2023-04-09T00:38:38.373Z,418.00
2023-04-09T00:39:38.278Z,417.00
2023-04-09T00:40:38.230Z,415.00
2023-04-09T00:41:38.228Z,414.00
2023-04-09T00:42:38.259Z,415.00
2023-04-09T00:43:38.190Z,414.00
2023-04-09T00:44:38.170Z,413.00
2023-04-09T00:45:38.159Z,413.00
2023-04-09T00:46:38.198Z,414.00
2023-04-09T00:47:38.156Z,414.00
2023-04-09T00:48:38.168Z,414.00
2023-04-09T00:49:38.109Z,415.00
2023-04-09T00:50:38.065Z,415.00
2023-04-09T00:51:38.082Z,415.00
2023-04-09T00:52:38.076Z,414.00
2023-04-09T00:53:38.107Z,416.00
2023-04-09T00:54:38.178Z,417.00
2023-04-09T00:55:38.125Z,417.00
2023-04-09T00:56:38.213Z,416.00
2023-04-09T00:57:38.107Z,415.00
2023-04-09T00:58:38.122Z,416.00
2023-04-09T00:59:38.085Z,415.00
2023-04-09T01:00:38.111Z,415.00
2023-04-09T01:01:38.160Z,418.00
2023-04-09T01:02:38.314Z,415.00
2023-04-09T01:03:38.189Z,413.00
2023-04-09T01:04:38.093Z,412.00
2023-04-09T01:05:38.024Z,413.00
2023-04-09T01:06:38.020Z,414.00
2023-04-09T01:07:37.994Z,416.00
2023-04-09T01:08:37.996Z,416.00
2023-04-09T01:09:38.033Z,421.00
2023-04-09T01:10:38.169Z,421.00
2023-04-09T01:11:38.026Z,420.00
2023-04-09T01:12:37.962Z,419.00
2023-04-09T01:13:37.965Z,419.00
2023-04-09T01:14:38.007Z,417.00
2023-04-09T01:15:38.011Z,417.00
2023-04-09T01:16:37.998Z,416.00
2023-04-09T01:17:38.010Z,417.00
2023-04-09T01:18:37.917Z,415.00
2023-04-09T01:19:37.942Z,415.00
2023-04-09T01:20:37.945Z,418.00
2023-04-09T01:21:37.907Z,419.00
2023-04-09T01:22:37.845Z,417.00
2023-04-09T01:23:37.808Z,416.00
2023-04-09T01:24:37.921Z,418.00
2023-04-09T01:25:38.204Z,419.00
2023-04-09T01:26:37.821Z,419.00
2023-04-09T01:27:37.811Z,422.00
2023-04-09T01:28:37.719Z,422.00
2023-04-09T01:29:37.754Z,423.00
2023-04-09T01:30:37.718Z,423.00
2023-04-09T01:31:37.658Z,424.00
2023-04-09T01:32:37.730Z,424.00
2023-04-09T01:33:37.637Z,425.00
2023-04-09T01:34:37.621Z,424.00
2023-04-09T01:35:37.686Z,424.00
2023-04-09T01:36:37.626Z,422.00
2023-04-09T01:37:37.560Z,422.00
2023-04-09T01:38:37.556Z,423.00
2023-04-09T01:39:37.564Z,424.00
2023-04-09T01:40:37.597Z,425.00
2023-04-09T01:41:37.524Z,425.00
2023-04-09T01:42:37.574Z,423.00
2023-04-09T01:43:37.486Z,425.00
2023-04-09T01:44:37.466Z,425.00
2023-04-09T01:45:37.512Z,426.00
2023-04-09T01:46:37.437Z,424.00
2023-04-09T01:47:37.444Z,425.00
2023-04-09T01:48:37.446Z,424.00
2023-04-09T01:49:37.371Z,424.00
2023-04-09T01:50:37.436Z,425.00
2023-04-09T01:51:37.347Z,426.00
2023-04-09T01:52:37.326Z,426.00
2023-04-09T01:53:37.352Z,424.00
2023-04-09T01:54:37.321Z,422.00
2023-04-09T01:55:37.291Z,422.00
2023-04-09T01:56:37.306Z,422.00
2023-04-09T01:57:37.272Z,422.00
2023-04-09T01:58:37.227Z,422.00
2023-04-09T01:59:37.235Z,421.00
2023-04-09T02:00:37.226Z,422.00
2023-04-09T02:01:37.272Z,423.00
2023-04-09T02:02:37.367Z,423.00
2023-04-09T02:03:37.263Z,423.00
2023-04-09T02:04:37.191Z,425.00
2023-04-09T02:05:37.105Z,426.00
2023-04-09T02:06:37.095Z,428.00
2023-04-09T02:07:37.072Z,430.00
2023-04-09T02:08:37.061Z,429.00
2023-04-09T02:09:37.059Z,427.00
2023-04-09T02:10:37.041Z,426.00
2023-04-09T02:11:37.025Z,424.00
2023-04-09T02:12:36.988Z,420.00
2023-04-09T02:13:36.969Z,418.00
2023-04-09T02:14:36.972Z,419.00
2023-04-09T02:15:36.989Z,418.00
2023-04-09T02:16:36.940Z,421.00
2023-04-09T02:17:37.096Z,419.00
2023-04-09T02:18:36.907Z,421.00
2023-04-09T02:19:36.911Z,423.00
2023-04-09T02:20:39.803Z,422.00
2023-04-09T02:21:36.881Z,423.00
2023-04-09T02:22:36.923Z,424.00
2023-04-09T02:23:36.856Z,427.00
2023-04-09T02:24:36.965Z,428.00
2023-04-09T02:25:37.214Z,426.00
2023-04-09T02:26:36.832Z,426.00
2023-04-09T02:27:36.831Z,426.00
2023-04-09T02:28:36.884Z,426.00
2023-04-09T02:29:36.902Z,424.00
2023-04-09T02:30:36.805Z,423.00
2023-04-09T02:31:36.864Z,423.00
2023-04-09T02:32:36.850Z,422.00
2023-04-09T02:33:36.809Z,422.00
2023-04-09T02:34:36.796Z,424.00
2023-04-09T02:35:36.862Z,425.00
2023-04-09T02:36:36.884Z,426.00
2023-04-09T02:37:36.815Z,426.00
2023-04-09T02:38:36.716Z,426.00
2023-04-09T02:39:36.713Z,425.00
2023-04-09T02:40:36.750Z,425.00
2023-04-09T02:41:36.756Z,425.00
2023-04-09T02:42:36.719Z,424.00
2023-04-09T02:43:36.719Z,421.00
2023-04-09T02:44:36.687Z,421.00
2023-04-09T02:45:36.728Z,419.00
2023-04-09T02:46:36.728Z,419.00
2023-04-09T02:47:36.696Z,419.00
2023-04-09T02:48:36.698Z,420.00
2023-04-09T02:49:36.677Z,420.00
2023-04-09T02:50:36.763Z,421.00
2023-04-09T02:51:36.761Z,420.00
2023-04-09T02:52:36.661Z,420.00
2023-04-09T02:53:36.672Z,420.00
2023-04-09T02:54:36.735Z,420.00
2023-04-09T02:55:36.815Z,421.00
2023-04-09T02:56:36.792Z,423.00
2023-04-09T02:57:36.817Z,423.00
2023-04-09T02:58:36.781Z,424.00
2023-04-09T02:59:36.780Z,423.00
2023-04-09T03:00:36.782Z,425.00
2023-04-09T03:01:36.859Z,424.00
2023-04-09T03:02:36.881Z,421.00
2023-04-09T03:03:36.843Z,421.00
2023-04-09T03:04:36.780Z,421.00
2023-04-09T03:05:36.788Z,420.00
2023-04-09T03:06:36.789Z,424.00
2023-04-09T03:07:36.874Z,426.00
2023-04-09T03:08:36.863Z,427.00
2023-04-09T03:09:36.936Z,426.00
2023-04-09T03:10:36.864Z,426.00
2023-04-09T03:11:36.959Z,424.00
2023-04-09T03:12:36.866Z,421.00
2023-04-09T03:13:36.900Z,422.00
2023-04-09T03:14:36.878Z,420.00
2023-04-09T03:15:36.920Z,421.00
2023-04-09T03:16:36.885Z,422.00
2023-04-09T03:17:36.979Z,422.00
2023-04-09T03:18:36.982Z,422.00
2023-04-09T03:19:37.023Z,422.00
2023-04-09T03:20:37.059Z,424.00
2023-04-09T03:21:37.674Z,426.00
2023-04-09T03:22:37.128Z,427.00
2023-04-09T03:23:37.193Z,427.00
2023-04-09T03:24:37.117Z,427.00
2023-04-09T03:25:37.091Z,427.00
2023-04-09T03:26:37.100Z,428.00
2023-04-09T03:27:37.092Z,426.00
2023-04-09T03:28:37.100Z,426.00
2023-04-09T03:29:37.138Z,426.00
2023-04-09T03:30:37.096Z,427.00
2023-04-09T03:31:37.214Z,427.00
2023-04-09T03:32:37.110Z,428.00
2023-04-09T03:33:37.076Z,428.00
2023-04-09T03:34:37.107Z,431.00
2023-04-09T03:35:37.092Z,431.00
2023-04-09T03:36:37.116Z,431.00
2023-04-09T03:37:37.177Z,430.00
2023-04-09T03:38:37.118Z,431.00
2023-04-09T03:39:37.145Z,432.00
2023-04-09T03:40:37.091Z,432.00
2023-04-09T03:41:37.123Z,431.00
2023-04-09T03:42:37.091Z,431.00
2023-04-09T03:43:37.167Z,432.00
2023-04-09T03:44:37.097Z,434.00
2023-04-09T03:45:37.101Z,431.00
2023-04-09T03:46:37.122Z,430.00
2023-04-09T03:47:37.162Z,429.00
2023-04-09T03:48:37.102Z,428.00
2023-04-09T03:49:37.123Z,430.00
2023-04-09T03:50:37.096Z,429.00
2023-04-09T03:51:37.101Z,427.00
2023-04-09T03:52:37.119Z,430.00
2023-04-09T03:53:37.095Z,433.00
2023-04-09T03:54:37.115Z,435.00
2023-04-09T03:55:37.135Z,433.00
2023-04-09T03:56:37.101Z,435.00
2023-04-09T03:57:37.108Z,436.00
2023-04-09T03:58:37.074Z,435.00
2023-04-09T03:59:37.090Z,431.00
2023-04-09T04:00:37.077Z,431.00
2023-04-09T04:01:37.138Z,431.00
2023-04-09T04:02:37.182Z,430.00
2023-04-09T04:03:37.209Z,431.00
2023-04-09T04:04:37.077Z,430.00
2023-04-09T04:05:37.068Z,427.00
2023-04-09T04:06:37.051Z,423.00
2023-04-09T04:07:37.090Z,424.00
2023-04-09T04:08:37.120Z,424.00
2023-04-09T04:09:37.066Z,425.00
2023-04-09T04:10:37.047Z,424.00
2023-04-09T04:11:37.070Z,424.00
2023-04-09T04:12:37.124Z,422.00
2023-04-09T04:13:37.024Z,423.00
2023-04-09T04:14:37.054Z,424.00
2023-04-09T04:15:37.025Z,423.00
2023-04-09T04:16:37.084Z,423.00
2023-04-09T04:17:37.072Z,423.00
2023-04-09T04:18:37.036Z,425.00
2023-04-09T04:19:37.058Z,425.00
2023-04-09T04:20:44.198Z,425.00
2023-04-09T04:21:37.036Z,423.00
2023-04-09T04:22:37.048Z,424.00
2023-04-09T04:23:37.041Z,425.00
2023-04-09T04:24:37.045Z,425.00
2023-04-09T04:25:37.041Z,424.00
2023-04-09T04:26:37.056Z,425.00
2023-04-09T04:27:37.066Z,427.00
2023-04-09T04:28:37.064Z,428.00
2023-04-09T04:29:37.088Z,428.00
2023-04-09T04:30:37.085Z,429.00
2023-04-09T04:31:37.133Z,428.00
2023-04-09T04:32:37.163Z,426.00
2023-04-09T04:33:37.067Z,428.00
2023-04-09T04:34:37.061Z,431.00
2023-04-09T04:35:37.177Z,431.00
2023-04-09T04:36:42.871Z,430.00
2023-04-09T04:37:37.072Z,433.00
2023-04-09T04:38:37.081Z,433.00
2023-04-09T04:39:37.196Z,434.00
2023-04-09T04:40:37.105Z,431.00
2023-04-09T04:41:37.115Z,430.00
2023-04-09T04:42:37.107Z,427.00
2023-04-09T04:43:37.168Z,425.00
2023-04-09T04:44:37.124Z,428.00
2023-04-09T04:45:37.170Z,428.00
2023-04-09T04:46:37.116Z,428.00
2023-04-09T04:47:37.213Z,426.00
2023-04-09T04:48:37.125Z,426.00
2023-04-09T04:49:37.159Z,425.00
2023-04-09T04:50:37.155Z,422.00
2023-04-09T04:51:37.151Z,423.00
2023-04-09T04:52:37.175Z,421.00
2023-04-09T04:53:37.164Z,419.00
2023-04-09T04:54:37.176Z,419.00
2023-04-09T04:55:37.197Z,419.00
2023-04-09T04:56:37.174Z,421.00
2023-04-09T04:57:37.185Z,424.00
2023-04-09T04:58:37.172Z,423.00
2023-04-09T04:59:37.173Z,422.00
2023-04-09T05:00:37.170Z,423.00
2023-04-09T05:01:37.276Z,421.00
2023-04-09T05:02:37.290Z,422.00
2023-04-09T05:03:37.280Z,423.00
2023-04-09T05:04:37.177Z,424.00
2023-04-09T05:05:37.182Z,424.00
2023-04-09T05:06:37.225Z,425.00
2023-04-09T05:07:37.188Z,425.00
2023-04-09T05:08:37.181Z,424.00
2023-04-09T05:09:37.181Z,422.00
2023-04-09T05:10:37.177Z,422.00
2023-04-09T05:11:37.174Z,418.00
2023-04-09T05:12:37.172Z,415.00
2023-04-09T05:13:37.154Z,417.00
2023-04-09T05:14:37.163Z,417.00
2023-04-09T05:15:37.163Z,416.00
2023-04-09T05:16:37.192Z,419.00
2023-04-09T05:17:37.198Z,418.00
2023-04-09T05:18:37.170Z,418.00
2023-04-09T05:19:37.183Z,417.00
2023-04-09T05:20:37.200Z,418.00
2023-04-09T05:21:37.177Z,424.00
2023-04-09T05:22:37.195Z,426.00
2023-04-09T05:23:37.206Z,425.00
2023-04-09T05:24:37.203Z,422.00
2023-04-09T05:25:37.178Z,421.00
2023-04-09T05:26:37.200Z,420.00
2023-04-09T05:27:37.251Z,421.00
2023-04-09T05:28:37.203Z,421.00
2023-04-09T05:29:37.223Z,422.00
2023-04-09T05:30:37.257Z,423.00
2023-04-09T05:31:37.224Z,422.00
2023-04-09T05:32:37.233Z,421.00
2023-04-09T05:33:37.206Z,421.00
2023-04-09T05:34:37.252Z,422.00
2023-04-09T05:35:37.251Z,419.00
2023-04-09T05:36:37.220Z,421.00
2023-04-09T05:37:37.249Z,423.00
2023-04-09T05:38:37.235Z,423.00
2023-04-09T05:39:37.220Z,426.00
2023-04-09T05:40:37.224Z,426.00
2023-04-09T05:41:37.269Z,429.00
2023-04-09T05:42:37.245Z,431.00
2023-04-09T05:43:37.257Z,431.00
2023-04-09T05:44:37.293Z,431.00
2023-04-09T05:45:37.291Z,431.00
2023-04-09T05:46:37.250Z,428.00
2023-04-09T05:47:37.336Z,428.00
2023-04-09T05:48:37.339Z,426.00
2023-04-09T05:49:37.255Z,426.00
2023-04-09T05:50:47.127Z,427.00
2023-04-09T05:51:38.250Z,428.00
2023-04-09T05:52:37.233Z,428.00
2023-04-09T05:53:37.275Z,426.00
2023-04-09T05:54:37.237Z,428.00
2023-04-09T05:55:37.240Z,428.00
2023-04-09T05:56:37.338Z,429.00
2023-04-09T05:57:37.255Z,428.00
2023-04-09T05:58:37.246Z,426.00
2023-04-09T05:59:37.248Z,427.00
2023-04-09T06:00:37.241Z,427.00
2023-04-09T06:01:37.279Z,428.00
2023-04-09T06:02:37.396Z,428.00
2023-04-09T06:03:37.389Z,429.00
2023-04-09T06:04:37.328Z,428.00
2023-04-09T06:05:37.347Z,428.00
2023-04-09T06:06:37.286Z,426.00
2023-04-09T06:07:37.297Z,425.00
2023-04-09T06:08:37.287Z,424.00
2023-04-09T06:09:37.357Z,423.00
2023-04-09T06:10:37.322Z,425.00
2023-04-09T06:11:37.346Z,426.00
2023-04-09T06:12:37.330Z,425.00
2023-04-09T06:13:37.327Z,425.00
2023-04-09T06:14:37.336Z,424.00
2023-04-09T06:15:37.346Z,425.00
2023-04-09T06:16:37.332Z,426.00
2023-04-09T06:17:37.430Z,425.00
2023-04-09T06:18:37.355Z,423.00
2023-04-09T06:19:37.486Z,421.00
2023-04-09T06:20:37.375Z,421.00
2023-04-09T06:21:37.373Z,423.00
2023-04-09T06:22:37.412Z,423.00
2023-04-09T06:23:37.426Z,425.00
2023-04-09T06:24:37.428Z,426.00
2023-04-09T06:25:37.454Z,425.00
2023-04-09T06:26:37.449Z,426.00
2023-04-09T06:27:37.463Z,427.00
2023-04-09T06:28:37.494Z,427.00
2023-04-09T06:29:37.495Z,428.00
2023-04-09T06:30:37.494Z,425.00
2023-04-09T06:31:37.530Z,425.00
2023-04-09T06:32:47.017Z,424.00
2023-04-09T06:33:38.494Z,424.00
2023-04-09T06:34:37.483Z,426.00
2023-04-09T06:35:37.564Z,426.00
2023-04-09T06:36:37.575Z,430.00
2023-04-09T06:37:37.552Z,431.00
2023-04-09T06:38:37.535Z,429.00
2023-04-09T06:39:40.343Z,428.00
2023-04-09T06:40:37.530Z,428.00
2023-04-09T06:41:37.542Z,429.00
2023-04-09T06:42:37.577Z,429.00
2023-04-09T06:43:37.557Z,427.00
2023-04-09T06:44:37.570Z,425.00
2023-04-09T06:45:38.580Z,424.00
2023-04-09T06:46:37.742Z,419.00
2023-04-09T06:47:37.567Z,421.00
2023-04-09T06:48:37.567Z,421.00
2023-04-09T06:49:37.589Z,425.00
2023-04-09T06:50:37.582Z,426.00
2023-04-09T06:51:37.598Z,427.00
2023-04-09T06:52:37.601Z,430.00
2023-04-09T06:53:37.619Z,431.00
2023-04-09T06:54:37.600Z,430.00
2023-04-09T06:55:37.612Z,431.00
2023-04-09T06:56:37.656Z,431.00
2023-04-09T06:57:37.602Z,433.00
2023-04-09T06:58:37.600Z,431.00
2023-04-09T06:59:37.610Z,430.00
2023-04-09T07:00:37.623Z,431.00
2023-04-09T07:01:37.676Z,433.00
2023-04-09T07:02:38.009Z,434.00
2023-04-09T07:03:37.777Z,434.00
2023-04-09T07:04:37.726Z,431.00
2023-04-09T07:05:37.652Z,429.00
2023-04-09T07:06:37.645Z,429.00
2023-04-09T07:07:37.658Z,429.00
2023-04-09T07:08:37.676Z,429.00
2023-04-09T07:09:37.720Z,428.00
2023-04-09T07:10:37.672Z,429.00
2023-04-09T07:11:37.696Z,428.00
2023-04-09T07:12:37.666Z,425.00
2023-04-09T07:13:37.703Z,425.00
2023-04-09T07:14:37.684Z,421.00
2023-04-09T07:15:38.816Z,421.00
2023-04-09T07:16:37.762Z,420.00
2023-04-09T07:17:37.791Z,419.00
2023-04-09T07:18:37.817Z,421.00
2023-04-09T07:19:37.690Z,422.00
2023-04-09T07:20:37.698Z,422.00
2023-04-09T07:21:37.696Z,419.00
2023-04-09T07:22:37.723Z,420.00
2023-04-09T07:23:37.703Z,419.00
2023-04-09T07:24:37.726Z,421.00
2023-04-09T07:25:37.663Z,421.00
2023-04-09T07:26:37.691Z,419.00
2023-04-09T07:27:37.684Z,419.00
2023-04-09T07:28:37.679Z,417.00
2023-04-09T07:29:37.720Z,418.00
2023-04-09T07:30:37.671Z,415.00
2023-04-09T07:31:37.792Z,414.00
2023-04-09T07:32:37.712Z,414.00
2023-04-09T07:33:37.646Z,415.00
2023-04-09T07:34:37.699Z,414.00
2023-04-09T07:35:37.684Z,414.00
2023-04-09T07:36:37.609Z,416.00
2023-04-09T07:37:37.665Z,416.00
2023-04-09T07:38:37.612Z,414.00
2023-04-09T07:39:37.600Z,412.00
2023-04-09T07:40:37.605Z,413.00
2023-04-09T07:41:37.612Z,415.00
2023-04-09T07:42:37.614Z,416.00
2023-04-09T07:43:37.641Z,417.00
2023-04-09T07:44:37.641Z,416.00
2023-04-09T07:45:37.579Z,414.00
2023-04-09T07:46:37.641Z,412.00
2023-04-09T07:47:37.649Z,410.00
2023-04-09T07:48:37.616Z,413.00
2023-04-09T07:49:37.639Z,414.00
2023-04-09T07:50:37.645Z,415.00
2023-04-09T07:51:37.627Z,418.00
2023-04-09T07:52:37.647Z,420.00
2023-04-09T07:53:37.626Z,422.00
2023-04-09T07:54:37.637Z,422.00
2023-04-09T07:55:37.641Z,421.00
2023-04-09T07:56:37.651Z,422.00
2023-04-09T07:57:37.670Z,425.00
2023-04-09T07:58:37.698Z,424.00
2023-04-09T07:59:37.660Z,422.00
2023-04-09T08:00:37.654Z,421.00
2023-04-09T08:01:37.744Z,422.00
2023-04-09T08:02:37.776Z,423.00
2023-04-09T08:03:37.956Z,423.00
2023-04-09T08:04:37.772Z,420.00
2023-04-09T08:05:37.718Z,424.00
2023-04-09T08:06:37.734Z,424.00
2023-04-09T08:07:37.700Z,423.00
2023-04-09T08:08:37.732Z,425.00
2023-04-09T08:09:37.739Z,427.00
2023-04-09T08:10:37.748Z,426.00
2023-04-09T08:11:37.754Z,425.00
2023-04-09T08:12:37.746Z,424.00
2023-04-09T08:13:37.786Z,423.00
2023-04-09T08:14:37.788Z,425.00
2023-04-09T08:15:37.775Z,423.00
2023-04-09T08:16:37.825Z,422.00
2023-04-09T08:17:37.817Z,424.00
2023-04-09T08:18:37.794Z,424.00
2023-04-09T08:19:39.234Z,425.00
2023-04-09T08:20:38.064Z,426.00
2023-04-09T08:21:38.033Z,426.00
2023-04-09T08:22:38.048Z,427.00
2023-04-09T08:23:38.062Z,426.00
2023-04-09T08:24:38.088Z,427.00
2023-04-09T08:25:38.101Z,428.00
2023-04-09T08:26:38.112Z,426.00
2023-04-09T08:27:38.116Z,426.00
2023-04-09T08:28:38.137Z,425.00
2023-04-09T08:29:38.153Z,426.00
2023-04-09T08:30:38.144Z,427.00
2023-04-09T08:31:38.215Z,428.00
2023-04-09T08:32:38.222Z,427.00
2023-04-09T08:33:38.212Z,427.00
2023-04-09T08:34:38.201Z,427.00
2023-04-09T08:35:38.196Z,427.00
2023-04-09T08:36:38.230Z,428.00
2023-04-09T08:37:38.200Z,430.00
2023-04-09T08:38:38.296Z,431.00
2023-04-09T08:39:38.213Z,431.00
2023-04-09T08:40:38.230Z,431.00
2023-04-09T08:41:38.230Z,430.00
2023-04-09T08:42:38.321Z,431.00
2023-04-09T08:43:56.163Z,432.00
2023-04-09T08:44:39.294Z,430.00
2023-04-09T08:45:38.310Z,428.00
2023-04-09T08:46:38.269Z,429.00
2023-04-09T08:47:38.367Z,430.00
2023-04-09T08:48:38.382Z,430.00
2023-04-09T08:49:38.302Z,429.00
2023-04-09T08:50:38.296Z,428.00
2023-04-09T08:51:38.307Z,428.00
2023-04-09T08:52:38.305Z,427.00
2023-04-09T08:53:38.343Z,428.00
2023-04-09T08:54:38.466Z,426.00
2023-04-09T08:55:38.434Z,427.00
2023-04-09T08:56:38.486Z,429.00
2023-04-09T08:57:38.522Z,431.00
2023-04-09T08:58:38.587Z,432.00
2023-04-09T08:59:38.628Z,431.00
2023-04-09T09:00:38.761Z,430.00
2023-04-09T09:01:38.758Z,429.00
2023-04-09T09:02:38.828Z,426.00
2023-04-09T09:03:38.837Z,426.00
2023-04-09T09:04:38.804Z,429.00
2023-04-09T09:05:38.806Z,427.00
2023-04-09T09:06:38.875Z,424.00
2023-04-09T09:07:38.808Z,423.00
2023-04-09T09:08:38.809Z,425.00
2023-04-09T09:09:38.815Z,427.00
2023-04-09T09:10:38.798Z,427.00
2023-04-09T09:11:38.796Z,425.00
2023-04-09T09:12:38.879Z,425.00
2023-04-09T09:13:38.768Z,426.00
2023-04-09T09:14:38.792Z,426.00
2023-04-09T09:15:38.754Z,426.00
2023-04-09T09:16:38.799Z,426.00
2023-04-09T09:17:38.776Z,426.00
2023-04-09T09:18:38.761Z,427.00
2023-04-09T09:19:38.800Z,428.00
2023-04-09T09:20:38.739Z,428.00
2023-04-09T09:21:38.713Z,430.00
2023-04-09T09:22:38.726Z,428.00
2023-04-09T09:23:38.702Z,429.00
2023-04-09T09:24:38.714Z,430.00
2023-04-09T09:25:38.744Z,431.00
2023-04-09T09:26:38.802Z,432.00
2023-04-09T09:27:38.786Z,431.00
2023-04-09T09:28:38.792Z,430.00
2023-04-09T09:29:38.801Z,429.00
2023-04-09T09:30:38.855Z,430.00
2023-04-09T09:31:38.816Z,430.00
2023-04-09T09:32:38.864Z,433.00
2023-04-09T09:33:38.830Z,433.00
2023-04-09T09:34:38.835Z,434.00
2023-04-09T09:35:38.831Z,432.00
2023-04-09T09:36:38.818Z,431.00
2023-04-09T09:37:38.807Z,428.00
2023-04-09T09:38:38.974Z,430.00
2023-04-09T09:39:38.803Z,430.00
2023-04-09T09:40:38.793Z,430.00
2023-04-09T09:41:38.787Z,430.00
2023-04-09T09:42:38.793Z,429.00
2023-04-09T09:43:38.751Z,431.00
2023-04-09T09:44:38.764Z,429.00
2023-04-09T09:45:38.754Z,429.00
2023-04-09T09:46:38.802Z,429.00
2023-04-09T09:47:38.755Z,428.00
2023-04-09T09:48:38.889Z,427.00
2023-04-09T09:49:39.704Z,426.00
2023-04-09T09:50:38.690Z,422.00
2023-04-09T09:51:38.675Z,422.00
2023-04-09T09:52:38.676Z,424.00
2023-04-09T09:53:38.665Z,426.00
2023-04-09T09:54:38.668Z,427.00
2023-04-09T09:55:38.657Z,429.00
2023-04-09T09:56:38.649Z,428.00
2023-04-09T09:57:38.628Z,426.00
2023-04-09T09:58:38.636Z,426.00
2023-04-09T09:59:38.732Z,423.00
2023-04-09T10:00:38.676Z,424.00
2023-04-09T10:01:38.744Z,424.00
2023-04-09T10:02:38.816Z,423.00
2023-04-09T10:03:38.724Z,423.00
2023-04-09T10:04:38.735Z,423.00
2023-04-09T10:05:38.749Z,423.00
2023-04-09T10:06:38.773Z,424.00
2023-04-09T10:07:38.752Z,422.00
2023-04-09T10:08:38.850Z,422.00
2023-04-09T10:09:38.790Z,421.00
2023-04-09T10:10:38.820Z,420.00
2023-04-09T10:11:38.810Z,420.00
2023-04-09T10:12:38.827Z,422.00
2023-04-09T10:13:38.837Z,423.00
2023-04-09T10:14:38.837Z,425.00
2023-04-09T10:15:38.988Z,425.00
2023-04-09T10:16:38.849Z,424.00
2023-04-09T10:17:39.084Z,424.00
2023-04-09T10:18:38.870Z,425.00
2023-04-09T10:19:38.908Z,426.00
2023-04-09T10:20:38.901Z,426.00
2023-04-09T10:21:39.502Z,426.00
2023-04-09T10:22:38.917Z,423.00
2023-04-09T10:23:38.932Z,423.00
2023-04-09T10:24:38.956Z,423.00
2023-04-09T10:25:39.047Z,424.00
2023-04-09T10:26:38.979Z,425.00
2023-04-09T10:27:38.999Z,423.00
2023-04-09T10:28:39.008Z,422.00
2023-04-09T10:29:38.993Z,423.00
2023-04-09T10:30:39.032Z,422.00
2023-04-09T10:31:39.087Z,422.00
2023-04-09T10:32:39.132Z,421.00
2023-04-09T10:33:39.094Z,420.00
2023-04-09T10:34:39.065Z,422.00
2023-04-09T10:35:39.168Z,421.00
2023-04-09T10:36:39.073Z,421.00
2023-04-09T10:37:39.088Z,420.00
2023-04-09T10:38:39.065Z,418.00
2023-04-09T10:39:39.051Z,415.00
2023-04-09T10:40:39.031Z,415.00
2023-04-09T10:41:39.010Z,414.00
2023-04-09T10:42:38.992Z,413.00
2023-04-09T10:43:38.983Z,412.00
2023-04-09T10:44:38.983Z,416.00
2023-04-09T10:45:38.987Z,419.00
2023-04-09T10:46:38.987Z,418.00
2023-04-09T10:47:38.970Z,417.00
2023-04-09T10:48:38.931Z,418.00
2023-04-09T10:49:38.915Z,419.00
2023-04-09T10:50:38.975Z,419.00
2023-04-09T10:51:38.922Z,418.00
2023-04-09T10:52:38.903Z,417.00
2023-04-09T10:53:38.943Z,420.00
2023-04-09T10:54:38.870Z,417.00
2023-04-09T10:55:38.872Z,416.00
2023-04-09T10:56:38.862Z,414.00
2023-04-09T10:57:38.845Z,411.00
2023-04-09T10:58:38.828Z,410.00
2023-04-09T10:59:38.826Z,414.00
2023-04-09T11:00:38.821Z,414.00
2023-04-09T11:01:39.011Z,414.00
2023-04-09T11:02:38.987Z,414.00
2023-04-09T11:03:38.804Z,415.00
2023-04-09T11:04:38.800Z,414.00
2023-04-09T11:05:38.797Z,414.00
2023-04-09T11:06:38.783Z,416.00
2023-04-09T11:07:38.784Z,420.00
2023-04-09T11:08:39.005Z,420.00
2023-04-09T11:09:38.813Z,421.00
2023-04-09T11:10:38.804Z,421.00
2023-04-09T11:11:38.840Z,421.00
2023-04-09T11:12:38.834Z,422.00
2023-04-09T11:13:38.830Z,422.00
2023-04-09T11:14:38.816Z,420.00
2023-04-09T11:15:38.851Z,420.00
2023-04-09T11:16:38.922Z,418.00
2023-04-09T11:17:38.908Z,420.00
2023-04-09T11:18:38.856Z,419.00
2023-04-09T11:19:38.864Z,420.00
2023-04-09T11:20:38.908Z,419.00
2023-04-09T11:21:38.867Z,420.00
2023-04-09T11:22:38.881Z,420.00
2023-04-09T11:23:38.890Z,420.00
2023-04-09T11:24:38.891Z,419.00
2023-04-09T11:25:38.949Z,420.00
2023-04-09T11:26:38.915Z,420.00
2023-04-09T11:27:38.917Z,420.00
2023-04-09T11:28:38.930Z,422.00
2023-04-09T11:29:39.074Z,424.00
2023-04-09T11:30:38.907Z,425.00
2023-04-09T11:31:38.969Z,425.00
2023-04-09T11:32:38.936Z,425.00
2023-04-09T11:33:38.929Z,426.00
2023-04-09T11:34:38.918Z,426.00
2023-04-09T11:35:38.926Z,426.00
2023-04-09T11:36:39.006Z,424.00
2023-04-09T11:37:38.903Z,424.00
2023-04-09T11:38:38.912Z,423.00
2023-04-09T11:39:38.900Z,425.00
2023-04-09T11:40:38.889Z,426.00
2023-04-09T11:41:38.901Z,425.00
2023-04-09T11:42:38.883Z,424.00
2023-04-09T11:43:38.893Z,423.00
2023-04-09T11:44:39.134Z,424.00
2023-04-09T11:45:38.891Z,422.00
2023-04-09T11:46:38.941Z,419.00
2023-04-09T11:47:38.882Z,419.00
2023-04-09T11:48:38.900Z,418.00
2023-04-09T11:49:38.867Z,417.00
2023-04-09T11:50:38.842Z,417.00
2023-04-09T11:51:38.837Z,416.00
2023-04-09T11:52:38.842Z,414.00
2023-04-09T11:53:38.840Z,413.00
2023-04-09T11:54:38.800Z,415.00
2023-04-09T11:55:38.794Z,415.00
2023-04-09T11:56:38.809Z,414.00
2023-04-09T11:57:38.768Z,414.00
2023-04-09T11:58:38.776Z,414.00
2023-04-09T11:59:38.771Z,415.00
2023-04-09T12:00:38.753Z,413.00
2023-04-09T12:01:38.778Z,413.00
2023-04-09T12:02:38.948Z,415.00
2023-04-09T12:03:38.817Z,415.00
2023-04-09T12:04:38.854Z,414.00
2023-04-09T12:05:41.206Z,415.00
2023-04-09T12:06:38.705Z,413.00
2023-04-09T12:07:39.574Z,414.00
2023-04-09T12:08:38.695Z,412.00
2023-04-09T12:09:38.644Z,414.00
2023-04-09T12:10:38.676Z,414.00
2023-04-09T12:11:38.606Z,415.00
2023-04-09T12:12:38.570Z,415.00
2023-04-09T12:13:38.545Z,417.00
2023-04-09T12:14:38.524Z,420.00
2023-04-09T12:15:38.500Z,420.00
2023-04-09T12:16:38.559Z,420.00
2023-04-09T12:17:38.503Z,420.00
2023-04-09T12:18:38.446Z,421.00
2023-04-09T12:19:38.409Z,421.00
2023-04-09T12:20:38.392Z,420.00
2023-04-09T12:21:38.373Z,420.00
2023-04-09T12:22:38.363Z,420.00
2023-04-09T12:23:38.345Z,419.00
2023-04-09T12:24:38.331Z,420.00
2023-04-09T12:25:38.299Z,422.00
2023-04-09T12:26:38.305Z,421.00
2023-04-09T12:27:38.244Z,421.00
2023-04-09T12:28:38.232Z,421.00